Time;durP1;ratioP1;P1;durP2;ratioP2;P2;SDS_P1;SDS_P2;PMS_P1;PMS_P2;Temp;Humidity;BMP_temperature;BMP_pressure;BME280_temperature;BME280_humidity;BME280_pressure;Samples;Min_cycle;Max_cycle;Signal;HPM_P1;HPM_P2
2021/07/10 00:02:04;;;;;;;1.75;1.75;;;21.90;75.10;;;;;;5060522;28;20184;-75
2021/07/10 00:04:29;;;;;;;2.20;2.08;;;21.90;75.10;;;;;;5067698;28;20206;-75
2021/07/10 00:06:59;;;;;;;4.10;2.42;;;21.90;75.10;;;;;;5060346;28;20217;-75
2021/07/10 00:09:28;;;;;;;2.00;2.00;;;21.90;75.30;;;;;;5066227;28;20185;-75
2021/07/10 00:11:54;;;;;;;4.25;2.42;;;21.90;74.90;;;;;;5062108;28;20187;-75
2021/07/10 00:14:20;;;;;;;2.55;1.95;;;21.90;75.30;;;;;;5065842;28;20190;-75
2021/07/10 00:16:45;;;;;;;2.13;2.03;;;21.90;75.10;;;;;;5063047;28;20239;-75
2021/07/10 00:19:11;;;;;;;1.83;1.83;;;21.80;75.20;;;;;;5065385;28;20223;-75
2021/07/10 00:21:37;;;;;;;2.50;1.80;;;21.80;75.40;;;;;;5067790;28;20186;-75
2021/07/10 00:24:03;;;;;;;2.00;1.92;;;21.80;75.50;;;;;;5068040;28;20727;-75
2021/07/10 00:26:29;;;;;;;3.85;1.95;;;21.70;75.20;;;;;;5067826;28;20184;-75
2021/07/10 00:28:55;;;;;;;2.17;2.08;;;21.70;75.40;;;;;;5064618;28;20659;-75
2021/07/10 00:31:20;;;;;;;6.43;2.20;;;21.70;75.60;;;;;;5063290;28;20193;-75
2021/07/10 00:33:46;;;;;;;2.08;1.90;;;21.70;75.40;;;;;;5067789;28;20232;-75
2021/07/10 00:36:12;;;;;;;2.63;2.53;;;21.70;75.30;;;;;;5060876;28;20318;-75
2021/07/10 00:38:38;;;;;;;1.85;1.75;;;21.60;75.30;;;;;;5058541;28;20222;-75
2021/07/10 00:41:03;;;;;;;3.15;2.08;;;21.60;75.00;;;;;;5054466;28;20210;-75
2021/07/10 00:43:29;;;;;;;1.90;1.90;;;21.60;75.10;;;;;;5065263;28;20758;-75
2021/07/10 00:45:55;;;;;;;2.38;2.10;;;21.60;75.00;;;;;;5054234;28;20179;-75
2021/07/10 00:48:21;;;;;;;2.22;1.90;;;21.50;75.00;;;;;;5057157;28;20196;-74
2021/07/10 00:50:48;;;;;;;2.13;2.10;;;21.50;75.40;;;;;;5054888;28;20175;-75
2021/07/10 00:53:13;;;;;;;2.13;2.13;;;21.50;75.30;;;;;;5066966;28;20193;-74
2021/07/10 00:55:39;;;;;;;2.10;2.10;;;21.40;75.30;;;;;;5061614;28;20175;-74
2021/07/10 00:58:05;;;;;;;2.75;2.40;;;21.40;75.30;;;;;;5067137;28;20186;-74
2021/07/10 01:00:31;;;;;;;4.03;2.25;;;21.40;75.20;;;;;;5066719;28;20186;-75
2021/07/10 01:02:56;;;;;;;2.10;2.08;;;21.30;75.20;;;;;;5060879;28;20215;-75
2021/07/10 01:05:29;;;;;;;1.95;1.70;;;21.30;75.60;;;;;;5059264;28;20269;-75
2021/07/10 01:07:56;;;;;;;2.15;2.00;;;21.20;75.50;;;;;;5062978;28;20180;-75
2021/07/10 01:10:22;;;;;;;4.97;2.50;;;21.10;75.80;;;;;;5076732;28;20196;-75
2021/07/10 01:12:50;;;;;;;2.70;2.58;;;21.10;75.80;;;;;;5060768;28;20309;-75
2021/07/10 01:15:19;;;;;;;3.28;1.98;;;21.10;74.80;;;;;;5061232;28;20233;-75
2021/07/10 01:17:46;;;;;;;2.08;2.08;;;21.10;74.90;;;;;;5059061;28;20213;-75
2021/07/10 01:20:21;;;;;;;2.38;2.30;;;21.10;75.70;;;;;;5065858;28;20266;-75
2021/07/10 01:22:49;;;;;;;2.30;2.20;;;21.10;74.70;;;;;;5066660;28;20193;-75
2021/07/10 01:25:17;;;;;;;2.00;2.00;;;21.10;75.00;;;;;;5070866;28;20276;-75
2021/07/10 01:27:43;;;;;;;2.53;2.45;;;21.20;74.60;;;;;;5056679;28;20187;-75
2021/07/10 01:30:14;;;;;;;3.03;1.83;;;21.20;74.60;;;;;;5065051;28;20194;-75
2021/07/10 01:32:40;;;;;;;3.90;2.00;;;21.20;74.80;;;;;;5060014;28;20275;-75
2021/07/10 01:35:09;;;;;;;2.17;2.13;;;21.20;74.20;;;;;;5067876;28;20215;-75
2021/07/10 01:37:36;;;;;;;2.30;1.88;;;21.20;74.30;;;;;;5052740;28;20489;-75
2021/07/10 01:40:05;;;;;;;2.08;1.98;;;21.20;74.30;;;;;;5058802;28;20549;-75
2021/07/10 01:42:32;;;;;;;2.42;2.22;;;21.20;74.30;;;;;;5059108;28;20685;-75
2021/07/10 01:44:58;;;;;;;2.42;2.22;;;21.10;74.40;;;;;;5059422;28;20193;-75
2021/07/10 01:47:24;;;;;;;1.98;1.95;;;21.10;74.40;;;;;;5052923;28;20184;-74
2021/07/10 01:49:50;;;;;;;2.35;2.35;;;21.10;74.80;;;;;;5059980;28;20629;-75
2021/07/10 01:52:16;;;;;;;2.55;2.45;;;21.10;74.70;;;;;;5061182;28;20258;-74
2021/07/10 01:54:42;;;;;;;2.95;2.63;;;21.10;74.30;;;;;;5062081;28;20254;-75
2021/07/10 01:57:09;;;;;;;2.10;2.10;;;21.00;74.50;;;;;;5065486;28;20203;-75
2021/07/10 01:59:35;;;;;;;3.25;2.10;;;21.00;74.30;;;;;;5066045;28;20262;-75
2021/07/10 02:02:01;;;;;;;2.67;2.47;;;21.00;74.30;;;;;;5058195;28;20246;-75
2021/07/10 02:04:27;;;;;;;2.78;2.10;;;21.00;74.10;;;;;;5065333;28;20675;-75
2021/07/10 02:06:52;;;;;;;3.35;2.45;;;21.00;74.10;;;;;;5057455;28;20175;-75
2021/07/10 02:09:18;;;;;;;2.00;2.00;;;20.90;74.30;;;;;;5066180;28;20182;-75
2021/07/10 02:11:46;;;;;;;2.17;2.08;;;20.90;74.80;;;;;;5058288;28;20175;-75
2021/07/10 02:14:13;;;;;;;2.08;1.98;;;20.90;74.10;;;;;;5065699;28;20186;-75
2021/07/10 02:16:39;;;;;;;2.70;1.92;;;20.90;74.60;;;;;;5059262;28;20268;-75
2021/07/10 02:19:04;;;;;;;1.92;1.92;;;20.90;74.30;;;;;;5064820;28;20648;-75
2021/07/10 02:21:30;;;;;;;2.42;2.35;;;20.90;74.40;;;;;;5065815;28;20600;-75
2021/07/10 02:23:56;;;;;;;1.98;1.88;;;20.80;74.40;;;;;;5065702;28;20572;-75
2021/07/10 02:26:22;;;;;;;2.00;2.00;;;20.90;74.30;;;;;;5063425;28;20279;-76
2021/07/10 02:28:48;;;;;;;2.50;2.40;;;20.80;74.30;;;;;;5065580;28;20288;-75
2021/07/10 02:31:13;;;;;;;3.00;2.10;;;20.80;74.30;;;;;;5060494;28;20191;-75
2021/07/10 02:33:39;;;;;;;2.25;2.15;;;20.80;74.60;;;;;;5065605;28;20257;-75
2021/07/10 02:36:05;;;;;;;6.13;2.17;;;20.70;74.60;;;;;;5060589;28;20243;-75
2021/07/10 02:38:31;;;;;;;2.85;2.10;;;20.70;74.40;;;;;;5061896;28;20193;-75
2021/07/10 02:40:56;;;;;;;2.78;2.30;;;20.70;74.80;;;;;;5054424;28;20262;-75
2021/07/10 02:43:22;;;;;;;2.22;2.13;;;20.60;74.70;;;;;;5069551;28;20224;-75
2021/07/10 02:45:48;;;;;;;2.10;2.00;;;20.60;74.70;;;;;;5055443;28;20271;-75
2021/07/10 02:48:14;;;;;;;2.60;2.40;;;20.60;74.70;;;;;;5064022;28;20316;-75
2021/07/10 02:50:41;;;;;;;3.58;2.38;;;20.60;74.60;;;;;;5055986;28;20740;-75
2021/07/10 02:53:07;;;;;;;4.53;2.15;;;20.60;74.80;;;;;;5068845;28;20667;-75
2021/07/10 02:55:34;;;;;;;2.70;2.60;;;20.50;74.70;;;;;;5060659;28;20189;-75
2021/07/10 02:58:00;;;;;;;2.42;2.42;;;20.50;74.80;;;;;;5065516;28;20700;-75
2021/07/10 03:00:28;;;;;;;2.05;1.95;;;20.50;75.10;;;;;;5065549;28;20190;-75
2021/07/10 03:02:55;;;;;;;2.55;2.25;;;20.50;75.00;;;;;;5060835;28;20263;-75
2021/07/10 03:05:22;;;;;;;2.25;2.00;;;20.50;75.10;;;;;;5063217;28;20180;-75
2021/07/10 03:07:48;;;;;;;2.05;2.00;;;20.50;75.20;;;;;;5066973;28;20737;-75
2021/07/10 03:10:22;;;;;;;2.40;2.08;;;20.50;75.20;;;;;;5064324;28;20218;-75
2021/07/10 03:12:48;;;;;;;1.85;1.75;;;20.50;75.10;;;;;;5063625;28;20184;-75
2021/07/10 03:15:15;;;;;;;2.20;2.00;;;20.50;75.30;;;;;;5067067;28;20486;-75
2021/07/10 03:17:45;;;;;;;2.50;2.30;;;20.50;75.20;;;;;;5064059;28;20593;-75
2021/07/10 03:20:12;;;;;;;3.15;2.40;;;20.50;75.40;;;;;;5068176;28;20756;-75
2021/07/10 03:22:38;;;;;;;2.20;2.20;;;20.50;75.50;;;;;;5068995;28;20198;-75
2021/07/10 03:25:07;;;;;;;4.35;3.03;;;20.50;75.70;;;;;;5073172;28;20178;-75
2021/07/10 03:27:33;;;;;;;2.10;2.10;;;20.40;75.70;;;;;;5059856;28;20183;-75
2021/07/10 03:32:44;;;;;;;2.60;2.40;;;20.30;77.00;;;;;;5063521;28;20245;-75
2021/07/10 03:35:11;;;;;;;2.53;2.50;;;20.30;77.20;;;;;;5069267;28;20988;-75
2021/07/10 03:37:37;;;;;;;2.80;2.78;;;20.30;77.40;;;;;;5054767;28;20215;-75
2021/07/10 03:40:07;;;;;;;4.10;2.60;;;20.20;77.90;;;;;;5060911;28;20597;-75
2021/07/10 03:42:33;;;;;;;2.95;2.25;;;20.20;77.20;;;;;;5062068;28;20304;-75
2021/07/10 03:44:59;;;;;;;2.63;2.38;;;20.30;76.80;;;;;;5061353;28;20215;-75
2021/07/10 03:47:24;;;;;;;2.67;2.47;;;20.30;76.80;;;;;;5055128;28;20206;-75
2021/07/10 03:49:50;;;;;;;2.08;2.08;;;20.20;76.60;;;;;;5065293;28;20320;-75
2021/07/10 03:52:16;;;;;;;2.35;2.25;;;20.20;76.40;;;;;;5068446;28;20186;-76
2021/07/10 03:54:42;;;;;;;3.35;3.05;;;20.30;77.30;;;;;;5064443;28;20190;-76
2021/07/10 03:57:07;;;;;;;2.45;2.35;;;20.30;76.40;;;;;;5067770;28;20214;-75
2021/07/10 03:59:33;;;;;;;2.58;2.38;;;20.30;76.20;;;;;;5068271;28;20503;-75
2021/07/10 04:01:59;;;;;;;2.22;2.22;;;20.30;75.80;;;;;;5060161;28;20669;-76
2021/07/10 04:04:24;;;;;;;2.55;2.45;;;20.30;76.10;;;;;;5068576;28;20182;-76
2021/07/10 04:06:50;;;;;;;2.20;2.20;;;20.40;76.60;;;;;;5060673;28;20195;-76
2021/07/10 04:09:16;;;;;;;2.20;2.10;;;20.40;76.10;;;;;;5068625;28;20182;-76
2021/07/10 04:11:41;;;;;;;6.60;2.40;;;20.40;77.00;;;;;;5060419;28;20214;-75
2021/07/10 04:14:07;;;;;;;2.70;2.50;;;20.50;76.40;;;;;;5068046;28;20178;-76
2021/07/10 04:16:33;;;;;;;3.55;2.92;;;20.50;76.40;;;;;;5060926;28;20313;-76
2021/07/10 04:18:59;;;;;;;2.72;2.47;;;20.50;76.60;;;;;;5066954;28;20178;-76
2021/07/10 04:21:25;;;;;;;2.88;2.70;;;20.50;76.40;;;;;;5068099;28;20573;-75
2021/07/10 04:23:51;;;;;;;6.60;2.20;;;20.60;76.10;;;;;;5068144;28;20179;-76
2021/07/10 04:26:16;;;;;;;2.63;2.42;;;20.60;76.50;;;;;;5066643;28;20617;-76
2021/07/10 04:28:42;;;;;;;2.42;2.38;;;20.60;75.90;;;;;;5066926;28;20179;-76
2021/07/10 04:31:08;;;;;;;7.15;2.58;;;20.60;77.10;;;;;;5060901;28;20175;-74
2021/07/10 04:33:34;;;;;;;2.78;2.40;;;20.50;75.90;;;;;;5068309;28;20579;-74
2021/07/10 04:35:59;;;;;;;3.50;2.40;;;20.60;75.80;;;;;;5061289;28;20358;-74
2021/07/10 04:38:25;;;;;;;2.42;2.40;;;20.60;75.90;;;;;;5060607;28;20276;-74
2021/07/10 04:40:51;;;;;;;2.60;2.40;;;20.60;75.70;;;;;;5054380;28;20265;-74
2021/07/10 04:43:16;;;;;;;2.40;2.38;;;20.60;76.10;;;;;;5067923;28;20207;-74
2021/07/10 04:45:42;;;;;;;3.85;2.63;;;20.70;75.70;;;;;;5054431;28;20183;-74
2021/07/10 04:48:08;;;;;;;4.43;2.10;;;20.70;75.90;;;;;;5061137;28;20188;-74
2021/07/10 04:50:34;;;;;;;5.95;2.28;;;20.80;75.40;;;;;;5054688;28;20312;-74
2021/07/10 04:53:00;;;;;;;2.25;2.10;;;20.80;75.60;;;;;;5069128;28;20183;-74
2021/07/10 04:55:25;;;;;;;2.40;2.30;;;20.90;75.10;;;;;;5063349;28;20194;-74
2021/07/10 04:57:51;;;;;;;2.58;2.40;;;20.90;75.60;;;;;;5061232;28;20829;-75
2021/07/10 05:00:19;;;;;;;2.28;2.17;;;21.00;75.50;;;;;;5067042;28;20244;-75
2021/07/10 05:02:45;;;;;;;1.95;1.85;;;21.00;75.20;;;;;;5063804;28;20607;-74
2021/07/10 05:05:12;;;;;;;2.25;2.25;;;21.10;75.60;;;;;;5059429;28;20186;-74
2021/07/10 05:07:38;;;;;;;2.33;2.30;;;21.20;75.40;;;;;;5067610;28;20190;-74
2021/07/10 05:10:05;;;;;;;5.82;2.28;;;21.20;75.40;;;;;;5060498;28;20186;-74
2021/07/10 05:12:31;;;;;;;3.03;2.72;;;21.30;75.80;;;;;;5067705;28;20214;-75
2021/07/10 05:14:56;;;;;;;3.90;2.50;;;21.40;75.50;;;;;;5061793;28;20253;-75
2021/07/10 05:17:23;;;;;;;5.97;2.47;;;21.50;76.20;;;;;;5067030;28;20271;-74
2021/07/10 05:19:49;;;;;;;2.08;2.03;;;21.60;75.50;;;;;;5062963;28;20179;-75
2021/07/10 05:22:15;;;;;;;2.55;2.35;;;21.70;75.30;;;;;;5066459;28;20185;-75
2021/07/10 05:24:41;;;;;;;2.30;2.20;;;21.70;74.40;;;;;;5068047;28;20175;-75
2021/07/10 05:27:07;;;;;;;2.45;2.45;;;21.80;74.00;;;;;;5067219;28;20178;-75
2021/07/10 05:29:33;;;;;;;3.08;2.72;;;21.90;74.70;;;;;;5062838;28;20226;-75
2021/07/10 05:32:00;;;;;;;3.58;2.70;;;22.00;74.40;;;;;;5066186;28;20178;-75
2021/07/10 05:34:26;;;;;;;2.65;2.50;;;22.00;74.70;;;;;;5066388;28;20273;-75
2021/07/10 05:36:53;;;;;;;4.43;2.45;;;22.00;73.10;;;;;;5062083;28;20292;-75
2021/07/10 05:39:19;;;;;;;1.88;1.88;;;22.00;73.60;;;;;;5054702;28;20188;-75
2021/07/10 05:41:45;;;;;;;2.75;2.50;;;22.00;72.60;;;;;;5062565;28;20201;-75
2021/07/10 05:44:10;;;;;;;2.72;2.35;;;22.00;73.60;;;;;;5061077;28;20441;-74
2021/07/10 05:46:36;;;;;;;2.95;2.70;;;22.00;73.30;;;;;;5062108;28;20210;-75
2021/07/10 05:49:02;;;;;;;3.83;2.63;;;22.10;73.80;;;;;;5054675;28;20763;-76
2021/07/10 05:51:28;;;;;;;3.10;2.90;;;22.20;73.80;;;;;;5062944;28;20182;-75
2021/07/10 05:53:53;;;;;;;2.55;2.28;;;22.20;73.70;;;;;;5061958;28;20179;-75
2021/07/10 05:56:19;;;;;;;2.15;2.10;;;22.30;73.70;;;;;;5065458;28;20206;-75
2021/07/10 05:58:45;;;;;;;2.83;2.60;;;22.30;73.50;;;;;;5066168;28;20191;-75
2021/07/10 06:01:11;;;;;;;2.42;2.33;;;22.40;74.10;;;;;;5064459;28;20193;-75
2021/07/10 06:03:37;;;;;;;2.60;2.50;;;22.40;73.70;;;;;;5058337;28;20176;-75
2021/07/10 06:06:02;;;;;;;3.58;2.70;;;22.50;73.00;;;;;;5068206;28;20360;-75
2021/07/10 06:08:29;;;;;;;3.90;3.22;;;22.50;73.50;;;;;;5059325;28;20191;-75
2021/07/10 06:10:55;;;;;;;2.38;2.28;;;22.60;73.10;;;;;;5067330;28;20266;-74
2021/07/10 06:13:21;;;;;;;7.97;2.65;;;22.60;73.40;;;;;;5059458;28;20670;-75
2021/07/10 06:15:46;;;;;;;3.35;2.67;;;22.60;73.10;;;;;;5067155;28;20205;-75
2021/07/10 06:18:12;;;;;;;2.70;2.60;;;22.70;73.30;;;;;;5059924;28;20226;-75
2021/07/10 06:20:39;;;;;;;2.40;2.28;;;22.70;73.10;;;;;;5065765;28;20648;-75
2021/07/10 06:23:06;;;;;;;2.78;2.67;;;22.80;73.30;;;;;;5065830;28;20183;-75
2021/07/10 06:25:36;;;;;;;2.92;2.72;;;22.90;73.00;;;;;;5069124;28;20213;-75
2021/07/10 06:28:04;;;;;;;3.88;3.15;;;22.90;72.90;;;;;;5076294;28;20187;-75
2021/07/10 06:30:30;;;;;;;3.42;2.78;;;23.00;72.70;;;;;;5063510;28;20263;-75
2021/07/10 06:32:56;;;;;;;2.53;2.42;;;23.00;72.20;;;;;;5063170;28;20285;-74
2021/07/10 06:35:21;;;;;;;11.75;3.00;;;23.10;71.70;;;;;;5066174;28;20647;-75
2021/07/10 06:37:47;;;;;;;3.03;2.92;;;23.10;72.20;;;;;;5057612;28;20294;-75
2021/07/10 06:40:14;;;;;;;4.32;4.03;;;23.20;72.20;;;;;;5064410;28;20621;-75
2021/07/10 06:42:40;;;;;;;3.60;3.40;;;23.20;72.40;;;;;;5066189;28;20248;-75
2021/07/10 06:45:08;;;;;;;3.00;2.90;;;23.30;72.50;;;;;;5063346;28;20179;-75
2021/07/10 06:47:34;;;;;;;3.15;2.95;;;23.30;72.30;;;;;;5059357;28;20215;-75
2021/07/10 06:50:00;;;;;;;2.90;2.80;;;23.40;72.50;;;;;;5062415;28;20184;-75
2021/07/10 06:52:27;;;;;;;2.70;2.53;;;23.50;72.40;;;;;;5066520;28;20712;-75
2021/07/10 06:54:53;;;;;;;2.50;2.47;;;23.50;72.40;;;;;;5065403;28;20182;-75
2021/07/10 06:57:18;;;;;;;3.58;2.70;;;23.60;72.10;;;;;;5068974;28;20215;-75
2021/07/10 06:59:44;;;;;;;3.25;3.05;;;23.70;72.10;;;;;;5069408;28;20181;-75
2021/07/10 07:02:10;;;;;;;2.78;2.67;;;23.70;72.00;;;;;;5062536;28;20206;-75
2021/07/10 07:04:36;;;;;;;3.08;2.72;;;23.80;71.30;;;;;;5065405;28;20184;-76
2021/07/10 07:07:02;;;;;;;2.45;2.45;;;23.80;71.70;;;;;;5063325;28;20732;-75
2021/07/10 07:09:28;;;;;;;2.95;2.75;;;23.90;71.70;;;;;;5064438;28;20186;-75
2021/07/10 07:11:54;;;;;;;3.67;3.25;;;24.00;71.50;;;;;;5063566;28;20564;-75
2021/07/10 07:14:19;;;;;;;3.10;2.83;;;24.10;71.90;;;;;;5063095;28;20183;-75
2021/07/10 07:16:45;;;;;;;2.95;2.75;;;24.10;71.80;;;;;;5061608;28;20693;-75
2021/07/10 07:19:11;;;;;;;7.03;2.90;;;24.20;71.30;;;;;;5064294;28;20626;-75
2021/07/10 07:21:36;;;;;;;2.60;2.47;;;24.30;70.60;;;;;;5069213;28;20175;-74
2021/07/10 07:24:03;;;;;;;3.03;2.78;;;24.40;70.80;;;;;;5068862;28;20667;-74
2021/07/10 07:26:28;;;;;;;2.70;2.70;;;24.40;71.00;;;;;;5066629;28;20262;-74
2021/07/10 07:28:54;;;;;;;2.90;2.70;;;24.50;70.80;;;;;;5061704;28;20275;-75
2021/07/10 07:31:20;;;;;;;2.58;2.35;;;24.60;70.40;;;;;;5076844;28;20726;-74
2021/07/10 07:33:46;;;;;;;5.47;2.80;;;24.70;70.80;;;;;;5068639;28;20187;-75
2021/07/10 07:36:11;;;;;;;3.95;2.83;;;24.80;70.90;;;;;;5062006;28;20245;-75
2021/07/10 07:38:37;;;;;;;2.80;2.58;;;24.90;70.90;;;;;;5064250;28;20190;-75
2021/07/10 07:41:04;;;;;;;2.75;2.60;;;24.90;70.40;;;;;;5068340;28;20271;-75
2021/07/10 07:43:30;;;;;;;7.80;3.17;;;25.00;70.40;;;;;;5066986;28;20180;-75
2021/07/10 07:45:56;;;;;;;6.18;5.55;;;25.10;70.80;;;;;;5055776;28;20183;-75
2021/07/10 07:48:21;;;;;;;4.65;4.35;;;25.20;71.00;;;;;;5056397;28;20266;-75
2021/07/10 07:50:47;;;;;;;3.40;3.20;;;25.30;70.60;;;;;;5055852;28;20187;-75
2021/07/10 07:53:16;;;;;;;7.18;2.92;;;25.40;70.70;;;;;;5067360;28;20182;-75
2021/07/10 07:55:42;;;;;;;3.30;3.20;;;25.50;70.60;;;;;;5063117;28;20620;-75
2021/07/10 07:58:08;;;;;;;2.83;2.60;;;25.50;70.20;;;;;;5068050;28;20210;-75
2021/07/10 08:00:34;;;;;;;2.78;2.67;;;25.60;68.60;;;;;;5068136;28;20817;-75
2021/07/10 08:02:59;;;;;;;2.67;2.58;;;25.60;69.10;;;;;;5060733;28;20180;-75
2021/07/10 08:05:25;;;;;;;3.33;3.13;;;25.70;69.70;;;;;;5060633;28;20276;-75
2021/07/10 08:07:52;;;;;;;3.05;2.85;;;25.70;69.40;;;;;;5063634;28;20266;-75
2021/07/10 08:10:18;;;;;;;2.60;2.60;;;25.80;68.60;;;;;;5060948;28;20266;-75
2021/07/10 08:12:47;;;;;;;3.88;2.50;;;25.80;68.80;;;;;;5062784;28;20802;-75
2021/07/10 08:15:16;;;;;;;2.88;2.72;;;25.90;68.10;;;;;;5061428;28;20666;-75
2021/07/10 08:17:44;;;;;;;7.00;2.72;;;25.90;68.70;;;;;;5060238;28;20210;-75
2021/07/10 08:20:10;;;;;;;10.73;2.78;;;25.90;69.20;;;;;;5066941;28;20554;-75
2021/07/10 08:22:36;;;;;;;10.32;2.90;;;26.00;69.20;;;;;;5067616;28;20179;-75
2021/07/10 08:25:03;;;;;;;3.25;2.83;;;26.10;69.30;;;;;;5070914;28;20174;-75
2021/07/10 08:27:28;;;;;;;3.33;3.17;;;26.20;68.60;;;;;;5057950;28;20187;-75
2021/07/10 08:29:54;;;;;;;3.08;2.88;;;26.30;67.70;;;;;;5063004;28;20182;-75
2021/07/10 08:32:20;;;;;;;2.88;2.78;;;26.20;67.70;;;;;;5059645;28;20262;-74
2021/07/10 08:34:45;;;;;;;2.72;2.63;;;26.30;67.90;;;;;;5069712;28;20187;-75
2021/07/10 08:37:11;;;;;;;3.28;2.97;;;26.30;68.40;;;;;;5054164;28;20215;-75
2021/07/10 08:39:37;;;;;;;4.10;3.17;;;26.30;67.90;;;;;;5058112;28;20696;-75
2021/07/10 08:42:04;;;;;;;2.50;2.42;;;26.40;68.80;;;;;;5056672;28;20657;-75
2021/07/10 08:44:34;;;;;;;2.85;2.78;;;26.50;68.80;;;;;;5062695;28;20191;-74
2021/07/10 08:47:00;;;;;;;2.38;2.38;;;26.60;68.40;;;;;;5055932;28;20197;-75
2021/07/10 08:49:26;;;;;;;2.55;2.42;;;26.70;67.50;;;;;;5067255;28;20179;-75
2021/07/10 08:51:53;;;;;;;2.60;2.60;;;26.80;68.10;;;;;;5067210;28;20182;-75
2021/07/10 08:54:18;;;;;;;3.13;2.65;;;26.80;66.60;;;;;;5062846;28;20183;-75
2021/07/10 08:56:45;;;;;;;4.32;2.67;;;26.80;66.10;;;;;;5066455;28;20594;-75
2021/07/10 08:59:12;;;;;;;3.00;2.80;;;26.90;67.70;;;;;;5066956;28;20248;-74
2021/07/10 09:01:39;;;;;;;2.97;2.78;;;27.00;67.10;;;;;;5061469;28;20615;-75
2021/07/10 09:04:05;;;;;;;2.67;2.60;;;27.00;67.30;;;;;;5065802;28;20186;-75
2021/07/10 09:06:32;;;;;;;2.97;2.88;;;27.10;66.80;;;;;;5059834;28;20294;-75
2021/07/10 09:09:00;;;;;;;3.25;3.15;;;27.20;66.70;;;;;;5066996;28;20261;-74
2021/07/10 09:11:26;;;;;;;3.00;2.80;;;27.30;67.50;;;;;;5058648;28;20186;-75
2021/07/10 09:13:56;;;;;;;3.70;3.40;;;27.40;66.50;;;;;;5068393;28;20581;-75
2021/07/10 09:16:35;;;;;;;5.72;3.30;;;27.50;65.40;;;;;;5059135;28;20318;-75
2021/07/10 09:19:09;;;;;;;3.13;2.88;;;27.60;66.20;;;;;;5066666;28;20198;-75
2021/07/10 09:21:46;;;;;;;2.83;2.78;;;27.70;67.20;;;;;;5066472;28;20189;-75
2021/07/10 09:24:18;;;;;;;2.92;2.83;;;27.80;67.20;;;;;;5066363;28;20178;-75
2021/07/10 09:26:45;;;;;;;5.13;3.33;;;27.90;66.00;;;;;;5068888;28;20327;-74
2021/07/10 09:29:18;;;;;;;3.13;2.95;;;28.10;65.20;;;;;;5058508;28;20180;-74
2021/07/10 09:31:47;;;;;;;8.88;2.78;;;28.30;65.20;;;;;;5064837;28;20190;-74
2021/07/10 09:34:21;;;;;;;2.97;2.78;;;28.40;65.80;;;;;;5066793;28;20678;-74
2021/07/10 09:37:12;;;;;;;3.15;2.97;;;28.60;64.70;;;;;;5060964;28;20217;-74
2021/07/10 09:39:54;;;;;;;3.42;3.28;;;28.80;65.00;;;;;;5015621;28;20212;-76
2021/07/10 09:42:32;;;;;;;3.17;3.00;;;28.90;65.00;;;;;;5018642;28;20228;-76
2021/07/10 09:44:58;;;;;;;3.13;2.92;;;29.10;64.10;;;;;;5023860;28;20279;-75
2021/07/10 09:47:28;;;;;;;3.10;3.00;;;29.30;64.00;;;;;;5011449;28;20297;-75
2021/07/10 09:49:56;;;;;;;4.78;2.95;;;29.50;63.60;;;;;;5016015;28;20227;-76
2021/07/10 09:52:24;;;;;;;2.80;2.80;;;29.60;63.60;;;;;;5019447;28;20263;-76
2021/07/10 09:54:54;;;;;;;2.88;2.78;;;29.80;63.10;;;;;;5026267;28;20241;-76
2021/07/10 09:57:27;;;;;;;3.00;2.90;;;30.10;62.70;;;;;;5018491;28;20233;-76
2021/07/10 10:00:00;;;;;;;3.22;2.92;;;30.30;61.10;;;;;;5018945;28;20243;-74
2021/07/10 10:02:29;;;;;;;3.13;3.00;;;30.60;60.60;;;;;;5027792;28;20230;-75
2021/07/10 10:05:05;;;;;;;3.60;3.30;;;30.70;60.50;;;;;;5015330;28;20577;-75
2021/07/10 10:07:46;;;;;;;3.33;3.13;;;30.80;60.70;;;;;;5023386;28;20198;-76
2021/07/10 10:10:24;;;;;;;3.20;3.10;;;30.80;61.00;;;;;;5016673;28;20204;-74
2021/07/10 10:13:04;;;;;;;3.33;3.13;;;30.70;61.30;;;;;;5016272;28;20192;-75
2021/07/10 10:15:43;;;;;;;3.17;3.08;;;30.80;61.10;;;;;;5025287;28;20199;-76
2021/07/10 10:18:10;;;;;;;2.88;2.88;;;30.80;60.80;;;;;;5058775;28;20212;-76
2021/07/10 10:20:37;;;;;;;3.97;3.35;;;30.90;60.50;;;;;;5065851;28;20201;-76
2021/07/10 10:23:05;;;;;;;3.42;3.22;;;30.70;60.60;;;;;;5065842;28;20187;-75
2021/07/10 10:25:31;;;;;;;4.38;3.17;;;30.60;61.10;;;;;;5068092;28;20672;-75
2021/07/10 10:27:57;;;;;;;2.85;2.70;;;30.60;61.70;;;;;;5074470;28;21010;-76
2021/07/10 10:30:23;;;;;;;3.20;3.10;;;30.50;61.20;;;;;;5063266;28;20229;-76
2021/07/10 10:32:49;;;;;;;3.30;2.97;;;30.50;60.70;;;;;;5062790;28;20194;-76
2021/07/10 10:35:18;;;;;;;2.83;2.70;;;30.50;59.90;;;;;;5065438;28;20188;-76
2021/07/10 10:37:44;;;;;;;3.00;2.90;;;30.50;60.80;;;;;;5052099;28;20203;-75
2021/07/10 10:40:12;;;;;;;3.30;3.13;;;30.50;59.60;;;;;;5065573;28;20240;-75
2021/07/10 10:42:39;;;;;;;8.57;3.00;;;30.60;61.20;;;;;;5065932;28;20260;-74
2021/07/10 10:45:06;;;;;;;2.85;2.75;;;30.90;60.20;;;;;;5057648;28;20237;-75
2021/07/10 10:47:43;;;;;;;2.97;2.97;;;31.20;60.30;;;;;;5055187;28;20190;-75
2021/07/10 10:50:39;;;;;;;3.28;3.17;;;31.50;59.60;;;;;;5054270;28;20598;-75
2021/07/10 10:53:06;;;;;;;3.08;3.00;;;31.70;58.60;;;;;;5019310;28;20203;-75
2021/07/10 10:55:32;;;;;;;2.63;2.63;;;31.90;57.60;;;;;;5021401;28;20251;-75
2021/07/10 10:58:10;;;;;;;3.20;2.97;;;32.00;58.00;;;;;;5023225;28;20227;-75
2021/07/10 11:00:38;;;;;;;4.15;2.35;;;32.00;58.00;;;;;;5018737;28;20457;-75
2021/07/10 11:03:12;;;;;;;2.90;2.90;;;32.00;58.10;;;;;;5024428;28;20284;-75
2021/07/10 11:05:52;;;;;;;2.83;2.72;;;32.20;57.60;;;;;;5021859;28;20664;-74
2021/07/10 11:08:21;;;;;;;2.50;2.38;;;32.40;57.10;;;;;;5022665;28;20191;-75
2021/07/10 11:11:06;;;;;;;2.78;2.78;;;32.70;56.70;;;;;;5024429;28;20187;-75
2021/07/10 11:13:40;;;;;;;2.75;2.60;;;32.80;56.10;;;;;;4978854;28;20205;-74
2021/07/10 11:16:14;;;;;;;2.10;2.10;;;33.10;57.10;;;;;;4989904;28;20193;-75
2021/07/10 11:18:59;;;;;;;2.05;2.05;;;33.60;56.80;;;;;;4987253;28;20279;-75
2021/07/10 11:21:41;;;;;;;2.28;2.25;;;33.90;54.90;;;;;;4984644;28;20272;-75
2021/07/10 11:26:47;;;;;;;2.50;2.28;;;35.00;53.90;;;;;;4989859;28;20645;-75
2021/07/10 11:29:36;;;;;;;2.30;2.30;;;35.60;52.70;;;;;;5008790;28;20194;-75
2021/07/10 11:32:11;;;;;;;2.10;2.00;;;36.00;50.70;;;;;;5045903;28;20243;-75
2021/07/10 11:34:51;;;;;;;2.13;2.13;;;36.40;51.70;;;;;;5046594;28;20186;-75
2021/07/10 11:37:20;;;;;;;2.55;2.45;;;36.40;52.20;;;;;;5035373;28;20222;-75
2021/07/10 11:40:06;;;;;;;2.38;2.30;;;36.20;51.90;;;;;;5045719;28;20269;-75
2021/07/10 11:42:41;;;;;;;2.38;2.38;;;36.20;50.50;;;;;;5045541;28;20676;-75
2021/07/10 11:45:08;;;;;;;2.20;2.20;;;36.20;50.70;;;;;;5044003;28;20791;-75
2021/07/10 11:47:44;;;;;;;1.88;1.85;;;35.90;52.40;;;;;;5045809;28;20183;-75
2021/07/10 11:50:24;;;;;;;2.35;2.35;;;35.50;52.00;;;;;;5046429;28;20229;-75
2021/07/10 11:53:02;;;;;;;2.25;2.15;;;35.30;51.90;;;;;;5067484;28;20184;-75
2021/07/10 11:55:31;;;;;;;2.08;2.08;;;35.40;51.90;;;;;;5065625;28;20514;-75
2021/07/10 11:58:00;;;;;;;2.45;1.98;;;35.50;52.60;;;;;;5063546;28;20206;-75
2021/07/10 12:00:26;;;;;;;2.00;1.90;;;35.80;51.60;;;;;;5068249;28;20728;-75
2021/07/10 12:02:52;;;;;;;1.90;1.90;;;36.10;50.20;;;;;;5062180;28;20182;-75
2021/07/10 12:05:23;;;;;;;2.38;2.28;;;36.30;51.20;;;;;;5060070;28;20179;-75
2021/07/10 12:07:53;;;;;;;2.17;2.08;;;36.40;50.00;;;;;;5064205;28;20203;-75
2021/07/10 12:10:30;;;;;;;1.58;1.58;;;36.70;49.60;;;;;;5063010;28;20181;-75
2021/07/10 12:12:59;;;;;;;1.70;1.65;;;37.30;48.90;;;;;;5060324;28;20175;-75
2021/07/10 12:15:30;;;;;;;1.70;1.70;;;38.00;48.30;;;;;;5067259;28;20174;-75
2021/07/10 12:17:58;;;;;;;4.70;1.83;;;38.40;48.20;;;;;;5063770;28;20221;-75
2021/07/10 12:20:30;;;;;;;2.25;2.05;;;38.40;46.70;;;;;;5067926;28;20611;-76
2021/07/10 12:22:59;;;;;;;2.20;2.00;;;38.60;47.10;;;;;;5067949;28;20218;-75
2021/07/10 12:25:28;;;;;;;5.28;1.70;;;38.70;47.10;;;;;;5070761;28;20182;-75
2021/07/10 12:28:00;;;;;;;2.33;1.90;;;38.90;46.70;;;;;;5058905;28;20179;-75
2021/07/10 12:30:35;;;;;;;3.00;2.00;;;39.30;46.00;;;;;;5064347;28;20211;-75
2021/07/10 12:33:01;;;;;;;1.63;1.52;;;39.70;45.20;;;;;;5065986;28;20246;-75
2021/07/10 12:35:26;;;;;;;2.20;2.20;;;40.10;45.30;;;;;;5065123;28;20200;-76
2021/07/10 12:37:52;;;;;;;2.08;2.00;;;40.30;46.40;;;;;;5055432;28;20290;-76
2021/07/10 12:40:18;;;;;;;1.75;1.75;;;40.10;46.00;;;;;;5056557;28;20190;-75
2021/07/10 12:42:43;;;;;;;1.70;1.70;;;40.00;45.90;;;;;;5062631;28;20209;-76
2021/07/10 12:45:09;;;;;;;2.88;1.90;;;40.30;46.20;;;;;;5056392;28;20697;-75
2021/07/10 12:47:37;;;;;;;3.70;1.77;;;40.70;45.20;;;;;;5056356;28;20266;-75
2021/07/10 12:50:04;;;;;;;2.15;2.05;;;41.30;44.90;;;;;;5055437;28;20187;-75
2021/07/10 12:52:57;;;;;;;2.05;1.95;;;41.90;44.70;;;;;;5063135;28;20656;-75
2021/07/10 12:55:27;;;;;;;4.20;1.73;;;42.50;44.10;;;;;;5063750;28;20569;-75